createdAt,value
2022-08-26T00:00:15.811Z,78.78
2022-08-26T00:03:06.984Z,78.88
2022-08-26T00:05:39.308Z,78.89
2022-08-26T00:08:13.035Z,79.05
2022-08-26T00:10:44.807Z,79.09
2022-08-26T00:13:16.182Z,79.17
2022-08-26T00:15:51.624Z,79.44
2022-08-26T00:18:23.014Z,79.42
2022-08-26T00:20:56.940Z,79.33
2022-08-26T00:23:28.875Z,79.51
2022-08-26T00:26:00.979Z,79.55
2022-08-26T00:28:33.191Z,79.68
2022-08-26T00:31:04.651Z,79.75
2022-08-26T00:33:38.312Z,79.78
2022-08-26T00:36:20.016Z,79.98
2022-08-26T00:38:51.463Z,80.19
2022-08-26T00:41:22.648Z,80.25
2022-08-26T00:43:53.727Z,80.26
2022-08-26T00:46:30.113Z,80.24
2022-08-26T00:49:12.180Z,80.17
2022-08-26T00:51:48.787Z,80.10
2022-08-26T00:54:22.427Z,80.02
2022-08-26T00:57:00.104Z,79.77
2022-08-26T00:59:33.170Z,79.96
2022-08-26T01:02:05.630Z,79.98
2022-08-26T01:04:39.503Z,79.79
2022-08-26T01:07:10.631Z,79.57
2022-08-26T01:09:41.801Z,79.69
2022-08-26T01:12:14.768Z,79.61
2022-08-26T01:14:46.510Z,79.83
2022-08-26T01:17:18.421Z,79.87
2022-08-26T01:19:53.426Z,79.87
2022-08-26T01:22:28.648Z,80.02
2022-08-26T01:25:03.684Z,80.43
2022-08-26T01:27:36.857Z,80.27
2022-08-26T01:30:11.679Z,80.17
2022-08-26T01:32:44.052Z,80.75
2022-08-26T01:35:15.037Z,80.57
2022-08-26T01:37:46.546Z,80.88
2022-08-26T01:40:22.972Z,80.64
2022-08-26T01:42:54.972Z,80.60
2022-08-26T01:45:29.871Z,80.52
2022-08-26T01:48:03.763Z,80.78
2022-08-26T01:50:37.085Z,80.95
2022-08-26T01:53:12.309Z,80.96
2022-08-26T01:55:47.766Z,81.13
2022-08-26T01:58:25.607Z,81.10
2022-08-26T02:00:57.932Z,81.03
2022-08-26T02:03:30.173Z,81.00
2022-08-26T02:06:05.220Z,80.92
2022-08-26T02:08:43.582Z,81.11
2022-08-26T02:11:15.248Z,81.25
2022-08-26T02:13:53.228Z,80.84
2022-08-26T02:16:28.694Z,80.76
2022-08-26T02:19:01.656Z,80.80
2022-08-26T02:21:35.131Z,80.68
2022-08-26T02:24:14.153Z,80.91
2022-08-26T02:26:46.307Z,80.67
2022-08-26T02:29:24.696Z,80.88
2022-08-26T02:31:56.517Z,80.85
2022-08-26T02:34:31.310Z,80.84
2022-08-26T02:37:05.439Z,80.65
2022-08-26T02:39:38.427Z,80.78
2022-08-26T02:42:11.013Z,80.60
2022-08-26T02:44:42.632Z,80.68
2022-08-26T02:47:16.500Z,80.59
2022-08-26T02:49:47.976Z,80.66
2022-08-26T02:52:19.795Z,80.58
2022-08-26T02:54:52.079Z,80.54
2022-08-26T02:57:23.039Z,80.73
2022-08-26T02:59:55.290Z,80.88
2022-08-26T03:02:26.597Z,80.94
2022-08-26T03:05:01.933Z,80.69
2022-08-26T03:07:33.780Z,80.93
2022-08-26T03:10:06.943Z,80.78
2022-08-26T03:12:39.874Z,80.78
2022-08-26T03:15:17.299Z,80.90
2022-08-26T03:17:50.504Z,81.31
2022-08-26T03:20:21.366Z,81.59
2022-08-26T03:22:53.432Z,81.59
2022-08-26T03:25:28.608Z,81.59
2022-08-26T03:27:59.788Z,81.81
2022-08-26T03:30:45.803Z,81.67
2022-08-26T03:33:16.827Z,81.46
2022-08-26T03:35:50.532Z,81.48
2022-08-26T03:38:23.029Z,81.32
2022-08-26T03:40:54.065Z,81.11
2022-08-26T03:43:26.836Z,81.04
2022-08-26T03:45:57.763Z,81.12
2022-08-26T03:48:28.811Z,81.15
2022-08-26T03:51:01.747Z,81.13
2022-08-26T03:53:34.065Z,81.42
2022-08-26T03:56:07.415Z,81.67
2022-08-26T03:58:38.906Z,81.75
2022-08-26T04:01:16.151Z,81.81
2022-08-26T04:04:00.155Z,81.97
2022-08-26T04:06:34.002Z,82.13
2022-08-26T04:09:08.005Z,81.85
2022-08-26T04:11:39.850Z,81.79
2022-08-26T04:14:17.628Z,81.74
2022-08-26T04:16:52.932Z,81.70
2022-08-26T04:19:27.165Z,81.53
2022-08-26T04:21:58.026Z,81.75
2022-08-26T04:24:29.372Z,82.00
2022-08-26T04:27:02.688Z,82.03
2022-08-26T04:29:33.820Z,81.95
2022-08-26T04:32:06.408Z,82.03
2022-08-26T04:34:38.953Z,81.68
2022-08-26T04:37:11.170Z,81.74
2022-08-26T04:39:42.316Z,81.76
2022-08-26T04:42:17.958Z,81.52
2022-08-26T04:44:54.073Z,81.50
2022-08-26T04:47:27.151Z,81.48
2022-08-26T04:50:01.915Z,81.34
2022-08-26T04:52:33.378Z,81.57
2022-08-26T04:55:04.528Z,81.50
2022-08-26T04:57:37.783Z,81.62
2022-08-26T05:00:13.393Z,81.38
2022-08-26T05:02:44.183Z,81.48
2022-08-26T05:05:16.003Z,81.29
2022-08-26T05:07:49.922Z,81.28
2022-08-26T05:10:23.531Z,81.26
2022-08-26T05:12:54.879Z,81.27
2022-08-26T05:15:27.254Z,81.30
2022-08-26T05:17:59.180Z,81.35
2022-08-26T05:20:35.315Z,81.24
2022-08-26T05:23:06.260Z,81.37
2022-08-26T05:25:42.065Z,81.57
2022-08-26T05:28:14.553Z,81.56
2022-08-26T05:30:46.008Z,81.72
2022-08-26T05:33:18.109Z,81.75
2022-08-26T05:35:49.496Z,81.87
2022-08-26T05:38:22.633Z,81.82
2022-08-26T05:40:54.206Z,81.74
2022-08-26T05:43:25.290Z,81.82
2022-08-26T05:45:57.391Z,82.00
2022-08-26T05:48:28.231Z,81.80
2022-08-26T05:51:03.393Z,81.97
2022-08-26T05:53:34.638Z,82.02
2022-08-26T05:56:08.121Z,81.97
2022-08-26T05:58:41.618Z,81.96
2022-08-26T06:01:14.787Z,81.94
2022-08-26T06:03:51.775Z,81.75
2022-08-26T06:06:29.040Z,81.84
2022-08-26T06:09:02.608Z,81.65
2022-08-26T06:11:34.423Z,81.59
2022-08-26T06:14:07.040Z,81.40
2022-08-26T06:16:40.979Z,81.42
2022-08-26T06:19:13.803Z,81.43
2022-08-26T06:21:51.333Z,81.27
2022-08-26T06:24:44.708Z,80.83
2022-08-26T06:27:15.628Z,80.71
2022-08-26T06:29:47.216Z,80.51
2022-08-26T06:32:18.605Z,80.28
2022-08-26T06:34:51.222Z,80.30
2022-08-26T06:37:22.411Z,80.30
2022-08-26T06:39:54.946Z,79.97
2022-08-26T06:42:26.674Z,79.57
2022-08-26T06:44:57.951Z,79.35
2022-08-26T06:47:30.652Z,79.07
2022-08-26T06:50:01.629Z,78.63
2022-08-26T06:52:32.654Z,78.86
2022-08-26T06:55:03.662Z,78.23
2022-08-26T06:57:37.729Z,77.85
2022-08-26T07:00:10.547Z,77.50
2022-08-26T07:02:41.996Z,77.91
2022-08-26T07:05:18.325Z,77.58
2022-08-26T07:07:52.656Z,77.23
2022-08-26T07:10:23.827Z,77.72
2022-08-26T07:12:55.139Z,76.87
2022-08-26T07:15:31.035Z,75.96
2022-08-26T07:18:02.970Z,75.08
2022-08-26T07:20:34.182Z,74.43
2022-08-26T07:23:05.314Z,73.46
2022-08-26T07:25:43.331Z,72.65
2022-08-26T07:28:15.706Z,72.05
2022-08-26T07:30:47.137Z,72.15
2022-08-26T07:33:18.346Z,71.58
2022-08-26T07:35:50.469Z,71.09
2022-08-26T07:38:21.573Z,70.75
2022-08-26T07:40:52.470Z,70.88
2022-08-26T07:43:24.487Z,69.59
2022-08-26T07:45:55.718Z,70.06
2022-08-26T07:48:26.989Z,69.59
2022-08-26T07:50:57.991Z,68.20
2022-08-26T07:53:29.296Z,68.32
2022-08-26T07:56:00.596Z,67.26
2022-08-26T07:58:32.075Z,67.33
2022-08-26T08:01:03.207Z,67.46
2022-08-26T08:03:36.356Z,67.09
2022-08-26T08:06:07.943Z,66.42
2022-08-26T08:08:41.443Z,66.45
2022-08-26T08:11:12.634Z,65.88
2022-08-26T08:13:43.799Z,65.20
2022-08-26T08:16:14.638Z,65.52
2022-08-26T08:18:46.331Z,65.47
2022-08-26T08:21:21.142Z,64.64
2022-08-26T08:23:55.095Z,64.54
2022-08-26T08:26:27.691Z,63.94
2022-08-26T08:28:59.421Z,63.34
2022-08-26T08:31:55.832Z,63.13
2022-08-26T08:34:24.478Z,63.28
2022-08-26T08:36:57.876Z,62.50
2022-08-26T08:39:32.618Z,61.82
2022-08-26T08:42:23.673Z,61.99
2022-08-26T08:44:58.369Z,61.29
2022-08-26T08:47:35.181Z,61.48
2022-08-26T08:50:10.128Z,61.54
2022-08-26T08:52:45.421Z,62.17
2022-08-26T08:55:18.698Z,61.94
2022-08-26T08:58:02.953Z,62.59
2022-08-26T09:00:42.987Z,61.05
2022-08-26T09:03:25.635Z,61.45
2022-08-26T09:05:57.050Z,61.03
2022-08-26T09:08:31.777Z,60.13
2022-08-26T09:11:04.596Z,59.09
2022-08-26T09:13:40.798Z,57.98
2022-08-26T09:16:19.129Z,58.14
2022-08-26T09:19:05.430Z,56.14
2022-08-26T09:21:36.625Z,56.11
2022-08-26T09:24:14.764Z,55.83
2022-08-26T09:26:56.638Z,55.18
2022-08-26T09:29:29.878Z,54.82
2022-08-26T09:35:07.830Z,55.22
2022-08-26T09:40:29.189Z,54.84
2022-08-26T09:43:16.017Z,54.25
2022-08-26T09:45:59.471Z,55.13
2022-08-26T09:48:36.205Z,55.26
2022-08-26T09:51:26.477Z,55.76
2022-08-26T09:53:59.062Z,56.10
2022-08-26T09:56:32.789Z,56.36
2022-08-26T09:59:06.432Z,56.84
2022-08-26T10:01:42.094Z,56.98
2022-08-26T10:04:16.451Z,57.32
2022-08-26T10:06:59.351Z,57.23
2022-08-26T10:09:34.065Z,56.68
2022-08-26T10:12:09.401Z,56.70
2022-08-26T10:14:48.494Z,56.61
2022-08-26T10:17:27.706Z,56.92
2022-08-26T10:20:03.771Z,57.25
2022-08-26T10:22:43.535Z,56.27
2022-08-26T10:25:19.535Z,56.05
2022-08-26T10:28:00.596Z,56.36
2022-08-26T10:30:36.145Z,55.82
2022-08-26T10:33:10.511Z,55.97
2022-08-26T10:35:51.884Z,56.05
2022-08-26T10:38:29.553Z,55.33
2022-08-26T10:41:09.731Z,54.70
2022-08-26T10:43:47.556Z,55.01
2022-08-26T10:46:27.204Z,54.32
2022-08-26T10:49:06.551Z,54.69
2022-08-26T10:51:42.296Z,54.23
2022-08-26T10:54:23.737Z,54.07
2022-08-26T10:57:03.399Z,54.25
2022-08-26T10:59:49.591Z,54.51
2022-08-26T11:02:29.587Z,53.31
2022-08-26T11:05:04.589Z,53.56
2022-08-26T11:07:46.153Z,53.91
2022-08-26T11:11:03.161Z,53.79
2022-08-26T11:14:01.570Z,53.60
2022-08-26T11:16:40.138Z,52.78
2022-08-26T11:19:50.868Z,52.78
2022-08-26T11:22:31.170Z,52.57
2022-08-26T11:25:11.523Z,52.34
2022-08-26T11:28:05.458Z,52.07
2022-08-26T11:30:45.460Z,51.86
2022-08-26T11:33:57.487Z,51.72
2022-08-26T11:36:58.264Z,49.67
2022-08-26T11:39:33.320Z,49.59
2022-08-26T11:42:24.278Z,49.93
2022-08-26T11:45:04.699Z,49.25
2022-08-26T11:47:36.660Z,49.08
2022-08-26T11:50:15.292Z,48.85
2022-08-26T11:52:55.509Z,48.33
2022-08-26T11:55:26.909Z,47.32
2022-08-26T11:58:00.948Z,47.28
2022-08-26T12:00:35.856Z,46.66
2022-08-26T12:03:10.181Z,47.21
2022-08-26T12:05:47.673Z,47.43
2022-08-26T12:08:22.626Z,46.90
2022-08-26T12:11:06.376Z,45.73
2022-08-26T12:13:39.330Z,46.37
2022-08-26T12:16:11.155Z,47.31
2022-08-26T12:18:42.344Z,47.46
2022-08-26T12:21:22.295Z,47.31
2022-08-26T12:23:57.351Z,46.96
2022-08-26T12:26:32.431Z,46.57
2022-08-26T12:29:10.018Z,46.17
2022-08-26T12:32:15.000Z,46.83
2022-08-26T12:34:45.156Z,45.42
2022-08-26T12:37:17.072Z,45.38
2022-08-26T12:39:50.313Z,45.76
2022-08-26T12:42:43.292Z,46.72
2022-08-26T12:45:14.459Z,46.10
2022-08-26T12:47:47.123Z,46.28
2022-08-26T12:50:22.839Z,46.46
2022-08-26T12:53:01.754Z,44.99
2022-08-26T12:55:43.777Z,44.65
2022-08-26T12:58:27.464Z,45.69
2022-08-26T13:01:00.056Z,45.53
2022-08-26T13:03:43.966Z,44.50
2022-08-26T13:06:27.980Z,45.25
2022-08-26T13:09:01.451Z,45.63
2022-08-26T13:11:35.456Z,45.11
2022-08-26T13:14:09.673Z,45.16
2022-08-26T13:16:42.627Z,46.15
2022-08-26T13:19:15.831Z,45.70
2022-08-26T13:21:49.723Z,46.03
2022-08-26T13:24:23.262Z,45.78
2022-08-26T13:26:54.477Z,44.74
2022-08-26T13:29:25.676Z,44.62
2022-08-26T13:31:57.091Z,44.60
2022-08-26T13:34:31.102Z,44.42
2022-08-26T13:37:02.489Z,43.75
2022-08-26T13:39:34.077Z,44.15
2022-08-26T13:42:05.288Z,43.71
2022-08-26T13:44:36.615Z,43.68
2022-08-26T13:47:08.595Z,44.66
2022-08-26T13:49:40.236Z,43.50
2022-08-26T13:52:11.941Z,44.44
2022-08-26T13:54:43.033Z,43.67
2022-08-26T13:57:14.248Z,44.49
2022-08-26T13:59:46.251Z,43.69
2022-08-26T14:02:17.354Z,44.05
2022-08-26T14:04:48.604Z,44.33
2022-08-26T14:07:19.627Z,44.11
2022-08-26T14:09:50.809Z,43.99
2022-08-26T14:12:22.299Z,44.61
2022-08-26T14:14:53.415Z,44.21
2022-08-26T14:17:26.342Z,44.35
2022-08-26T14:20:01.759Z,44.07
2022-08-26T14:22:33.263Z,44.71
2022-08-26T14:25:04.199Z,44.57
2022-08-26T14:27:36.966Z,43.45
2022-08-26T14:30:11.749Z,42.26
2022-08-26T14:32:47.338Z,41.97
2022-08-26T14:35:21.208Z,41.03
2022-08-26T14:37:53.682Z,41.04
2022-08-26T14:40:27.715Z,41.36
2022-08-26T14:42:59.029Z,40.37
2022-08-26T14:45:30.764Z,39.69
2022-08-26T14:48:01.944Z,39.13
2022-08-26T14:50:33.148Z,38.60
2022-08-26T14:53:21.607Z,37.97
2022-08-26T14:55:52.839Z,38.28
2022-08-26T14:58:23.793Z,37.65
2022-08-26T15:00:54.710Z,37.93
2022-08-26T15:03:25.766Z,38.55
2022-08-26T15:05:57.505Z,37.55
2022-08-26T15:08:28.710Z,37.96
2022-08-26T15:10:59.717Z,37.58
2022-08-26T15:13:30.790Z,38.29
2022-08-26T15:16:01.785Z,38.21
2022-08-26T15:18:33.083Z,37.90
2022-08-26T15:21:04.771Z,38.38
2022-08-26T15:23:36.030Z,37.54
2022-08-26T15:26:09.280Z,38.28
2022-08-26T15:28:41.442Z,38.71
2022-08-26T15:31:12.725Z,38.71
2022-08-26T15:33:44.146Z,39.35
2022-08-26T15:36:15.290Z,37.87
2022-08-26T15:38:46.337Z,38.33
2022-08-26T15:41:17.441Z,37.44
2022-08-26T15:43:48.628Z,37.20
2022-08-26T15:46:20.317Z,37.79
2022-08-26T15:48:51.989Z,37.65
2022-08-26T15:51:25.636Z,38.56
2022-08-26T15:53:57.724Z,37.98
2022-08-26T15:56:31.204Z,37.41
2022-08-26T15:59:03.963Z,38.66
2022-08-26T16:01:36.583Z,38.23
2022-08-26T16:04:08.396Z,38.86
2022-08-26T16:06:41.027Z,39.09
2022-08-26T16:09:12.431Z,39.65
2022-08-26T16:11:46.975Z,39.84
2022-08-26T16:14:18.490Z,40.80
2022-08-26T16:16:50.864Z,41.20
2022-08-26T16:19:22.493Z,42.23
2022-08-26T16:21:54.009Z,42.84
2022-08-26T16:24:29.729Z,42.51
2022-08-26T16:27:02.237Z,40.56
2022-08-26T16:29:33.392Z,39.83
2022-08-26T16:32:08.829Z,41.99
2022-08-26T16:34:50.224Z,44.33
2022-08-26T16:37:28.299Z,46.49
2022-08-26T16:39:59.383Z,48.30
2022-08-26T16:42:30.388Z,49.21
2022-08-26T16:45:01.586Z,50.31
2022-08-26T16:47:33.137Z,50.80
2022-08-26T16:50:04.828Z,51.20
2022-08-26T16:52:36.231Z,51.59
2022-08-26T16:55:08.964Z,52.41
2022-08-26T16:57:41.313Z,51.78
2022-08-26T17:00:18.571Z,51.51
2022-08-26T17:02:49.725Z,52.46
2022-08-26T17:05:20.776Z,54.21
2022-08-26T17:07:51.696Z,57.38
2022-08-26T17:10:24.089Z,59.49
2022-08-26T17:12:55.393Z,59.11
2022-08-26T17:15:27.277Z,59.36
2022-08-26T17:17:59.223Z,59.75
2022-08-26T17:20:31.093Z,62.05
2022-08-26T17:23:01.960Z,63.00
2022-08-26T17:25:34.265Z,63.63
2022-08-26T17:28:06.297Z,64.46
2022-08-26T17:30:44.409Z,65.74
2022-08-26T17:33:15.215Z,67.18
2022-08-26T17:35:49.390Z,68.01
2022-08-26T17:38:21.229Z,68.63
2022-08-26T17:40:52.928Z,70.35
2022-08-26T17:43:24.179Z,71.05
2022-08-26T17:46:06.856Z,71.73
2022-08-26T17:48:39.451Z,72.51
2022-08-26T17:51:12.787Z,74.27
2022-08-26T17:53:44.142Z,72.70
2022-08-26T17:56:19.453Z,73.02
2022-08-26T17:58:51.296Z,73.66
2022-08-26T18:01:26.278Z,73.47
2022-08-26T18:04:00.477Z,73.98
2022-08-26T18:06:32.760Z,75.16
2022-08-26T18:09:04.404Z,77.06
2022-08-26T18:11:35.364Z,77.50
2022-08-26T18:14:06.334Z,79.01
2022-08-26T18:16:38.500Z,80.36
2022-08-26T18:19:10.767Z,81.72
2022-08-26T18:21:41.773Z,82.29
2022-08-26T18:24:14.193Z,82.31
2022-08-26T18:26:49.007Z,80.89
2022-08-26T18:29:21.907Z,80.72
2022-08-26T18:31:53.082Z,80.82
2022-08-26T18:34:24.956Z,81.78
2022-08-26T18:37:02.637Z,81.54
2022-08-26T18:39:33.895Z,81.00
2022-08-26T18:42:05.195Z,79.97
2022-08-26T18:44:36.312Z,79.68
2022-08-26T18:47:07.465Z,79.01
2022-08-26T18:49:39.284Z,79.13
2022-08-26T18:52:10.355Z,79.62
2022-08-26T18:54:41.227Z,79.76
2022-08-26T18:57:12.751Z,79.32
2022-08-26T18:59:44.049Z,79.78
2022-08-26T19:02:15.250Z,80.06
2022-08-26T19:04:46.353Z,80.29
2022-08-26T19:07:17.319Z,80.08
2022-08-26T19:09:48.542Z,80.54
2022-08-26T19:12:26.939Z,81.14
2022-08-26T19:14:58.222Z,81.40
2022-08-26T19:17:31.488Z,81.57
2022-08-26T19:20:03.258Z,81.57
2022-08-26T19:22:34.800Z,81.86
2022-08-26T19:25:06.744Z,81.50
2022-08-26T19:27:37.775Z,81.28
2022-08-26T19:30:11.273Z,82.04
2022-08-26T19:32:42.464Z,81.81
2022-08-26T19:35:14.669Z,81.64
2022-08-26T19:37:46.336Z,82.15
2022-08-26T19:40:17.725Z,83.08
2022-08-26T19:43:09.958Z,82.71
2022-08-26T19:45:43.149Z,82.84
2022-08-26T19:48:14.232Z,83.22
2022-08-26T19:50:46.466Z,83.99
2022-08-26T19:53:17.685Z,84.52
2022-08-26T19:55:48.970Z,85.01
2022-08-26T19:58:19.777Z,84.70
2022-08-26T20:00:50.856Z,84.74
2022-08-26T20:03:22.636Z,84.64
2022-08-26T20:05:54.061Z,84.45
2022-08-26T20:08:28.632Z,84.50
2022-08-26T20:11:04.130Z,84.90
2022-08-26T20:13:35.284Z,85.03
2022-08-26T20:16:07.262Z,84.90
2022-08-26T20:18:55.828Z,84.80
2022-08-26T20:21:29.914Z,84.55
2022-08-26T20:24:07.505Z,83.96
2022-08-26T20:26:40.699Z,84.11
2022-08-26T20:29:14.202Z,83.94
2022-08-26T20:31:46.352Z,83.80
2022-08-26T20:34:19.085Z,83.72
2022-08-26T20:36:51.450Z,83.64
2022-08-26T20:39:23.085Z,83.24
2022-08-26T20:41:54.236Z,83.34
2022-08-26T20:44:25.318Z,83.51
2022-08-26T20:46:56.760Z,83.73
2022-08-26T20:49:28.106Z,83.87
2022-08-26T20:51:59.821Z,83.86
2022-08-26T20:54:31.304Z,83.75
2022-08-26T20:57:02.265Z,83.66
2022-08-26T20:59:33.279Z,83.75
2022-08-26T21:02:04.516Z,83.68
2022-08-26T21:04:35.833Z,83.81
2022-08-26T21:07:07.244Z,83.84
2022-08-26T21:09:38.706Z,83.77
2022-08-26T21:12:10.142Z,83.62
2022-08-26T21:14:41.168Z,83.68
2022-08-26T21:17:12.769Z,83.65
2022-08-26T21:19:44.552Z,83.53
2022-08-26T21:22:15.701Z,83.42
2022-08-26T21:24:47.288Z,83.13
2022-08-26T21:27:23.091Z,83.24
2022-08-26T21:29:58.018Z,83.25
2022-08-26T21:32:29.451Z,83.28
2022-08-26T21:35:02.180Z,83.17
2022-08-26T21:37:33.155Z,83.28
2022-08-26T21:40:05.688Z,83.34
2022-08-26T21:42:37.482Z,83.09
2022-08-26T21:45:10.154Z,83.20
2022-08-26T21:47:41.933Z,82.99
2022-08-26T21:50:13.741Z,83.41
2022-08-26T21:52:45.238Z,83.17
2022-08-26T21:55:16.556Z,83.12
2022-08-26T21:57:47.700Z,83.29
2022-08-26T22:00:20.332Z,83.41
2022-08-26T22:02:51.218Z,83.09
2022-08-26T22:05:22.296Z,83.01
2022-08-26T22:07:53.603Z,82.93
2022-08-26T22:10:24.623Z,83.00
2022-08-26T22:12:56.717Z,82.87
2022-08-26T22:15:28.263Z,82.87
2022-08-26T22:17:59.821Z,82.72
2022-08-26T22:20:31.167Z,82.72
2022-08-26T22:23:02.412Z,82.93
2022-08-26T22:25:33.607Z,82.79
2022-08-26T22:28:05.532Z,82.61
2022-08-26T22:30:37.133Z,82.76
2022-08-26T22:33:08.549Z,82.94
2022-08-26T22:35:42.860Z,82.96
2022-08-26T22:38:14.365Z,83.04
2022-08-26T22:40:55.388Z,83.39
2022-08-26T22:43:27.770Z,83.35
2022-08-26T22:45:59.092Z,83.30
2022-08-26T22:48:30.306Z,83.46
2022-08-26T22:51:01.278Z,83.28
2022-08-26T22:53:32.786Z,83.41
2022-08-26T22:56:07.537Z,83.26
2022-08-26T22:58:38.544Z,82.98
2022-08-26T23:01:10.556Z,82.91
2022-08-26T23:03:41.754Z,82.76
2022-08-26T23:06:13.607Z,82.79
2022-08-26T23:08:46.578Z,82.86
2022-08-26T23:11:17.606Z,82.72
2022-08-26T23:13:49.156Z,82.73
2022-08-26T23:16:20.428Z,82.80
2022-08-26T23:18:51.753Z,82.64
2022-08-26T23:21:22.897Z,82.90
2022-08-26T23:23:53.916Z,83.07
2022-08-26T23:26:24.950Z,83.09
2022-08-26T23:28:56.249Z,83.25
2022-08-26T23:31:27.511Z,83.32
2022-08-26T23:34:16.508Z,83.51
2022-08-26T23:36:48.270Z,83.56
2022-08-26T23:39:19.755Z,83.47
2022-08-26T23:41:50.846Z,83.35
2022-08-26T23:44:22.651Z,83.29
2022-08-26T23:46:53.935Z,83.14
2022-08-26T23:49:25.839Z,83.07
2022-08-26T23:52:17.096Z,83.26
2022-08-26T23:54:48.991Z,83.29
2022-08-26T23:57:22.032Z,83.38
2022-08-26T23:59:53.409Z,83.07
